Time;durP1;ratioP1;P1;durP2;ratioP2;P2;SDS_P1;SDS_P2;PMS_P1;PMS_P2;Temp;Humidity;BMP_temperature;BMP_pressure;BME280_temperature;BME280_humidity;BME280_pressure;Samples;Min_cycle;Max_cycle;Signal;HPM_P1;HPM_P2
2023/10/05 00:00:39;;;;;;;23.70;7.70;;;;;;;15.54;59.89;99710.48;135183;1282;22526;-67
2023/10/05 00:04:03;;;;;;;24.20;7.70;;;;;;;15.68;59.27;99711.31;135210;1282;22540;-64
2023/10/05 00:07:06;;;;;;;24.20;7.70;;;;;;;15.59;59.24;99705.91;135209;1282;22608;-64
2023/10/05 00:10:11;;;;;;;28.10;7.70;;;;;;;15.61;59.10;99698.02;135195;1282;23021;-65
2023/10/05 00:13:14;;;;;;;27.30;7.60;;;;;;;15.70;58.66;99697.55;135172;1282;22555;-64
2023/10/05 00:16:20;;;;;;;24.20;7.30;;;;;;;15.56;58.91;99701.34;135206;1282;22536;-65
2023/10/05 00:19:26;;;;;;;30.00;7.90;;;;;;;15.52;59.19;99697.89;135184;1282;22529;-65
2023/10/05 00:22:30;;;;;;;26.30;7.90;;;;;;;15.55;58.97;99691.15;135189;1282;22536;-66
2023/10/05 00:25:33;;;;;;;27.20;7.80;;;;;;;15.64;58.54;99692.14;135163;1282;22539;-65
2023/10/05 00:28:36;;;;;;;25.30;8.30;;;;;;;15.59;58.56;99687.37;135163;1282;22531;-63
2023/10/05 00:31:39;;;;;;;24.30;7.60;;;;;;;15.55;58.42;99684.99;135192;1282;22671;-63
2023/10/05 00:34:42;;;;;;;25.90;7.30;;;;;;;15.55;58.30;99678.69;135167;1282;22533;-63
2023/10/05 00:37:46;;;;;;;23.00;7.10;;;;;;;15.51;57.96;99679.13;135183;1282;25268;-64
2023/10/05 00:40:57;;;;;;;23.50;7.30;;;;;;;15.46;58.00;99676.08;135210;1282;22545;-64
2023/10/05 00:44:00;;;;;;;24.60;8.10;;;;;;;15.37;58.00;99665.80;135203;1283;22542;-63
2023/10/05 00:47:05;;;;;;;24.20;7.70;;;;;;;15.20;58.60;99664.61;135198;1282;24389;-63
2023/10/05 00:50:10;;;;;;;23.70;7.70;;;;;;;15.25;58.49;99669.55;135204;1282;25241;-63
2023/10/05 00:53:13;;;;;;;28.00;7.70;;;;;;;15.28;58.35;99665.13;135189;1282;24271;-63
2023/10/05 00:56:16;;;;;;;21.30;6.60;;;;;;;15.20;58.54;99667.27;135200;1282;22539;-64
2023/10/05 00:59:20;;;;;;;24.50;6.90;;;;;;;15.07;58.54;99675.01;135204;1265;24267;-64
2023/10/05 01:02:23;;;;;;;24.40;7.80;;;;;;;14.99;58.81;99670.23;135204;1282;22581;-63
2023/10/05 01:05:34;;;;;;;27.00;8.20;;;;;;;14.92;59.59;99659.63;135186;1282;22529;-63
2023/10/05 01:08:48;;;;;;;26.40;8.70;;;;;;;14.81;60.59;99660.33;135196;1283;22531;-64
2023/10/05 01:11:54;;;;;;;26.60;8.60;;;;;;;14.79;61.00;99661.16;135165;1282;22533;-65
2023/10/05 01:14:58;;;;;;;25.90;8.50;;;;;;;14.97;60.39;99662.65;135201;1282;22532;-64
2023/10/05 01:18:02;;;;;;;27.50;8.00;;;;;;;15.07;60.06;99660.75;135168;1282;22687;-66
2023/10/05 01:21:04;;;;;;;27.80;8.30;;;;;;;15.10;60.01;99655.41;135176;1282;22532;-64
2023/10/05 01:24:07;;;;;;;27.00;8.00;;;;;;;15.29;59.52;99651.17;135172;1282;25368;-64
2023/10/05 01:27:11;;;;;;;;;;;;;;;15.34;59.36;99646.43;135192;1282;22728;-64
2023/10/05 01:30:13;;;;;;;28.10;8.30;;;;;;;15.28;59.48;99647.35;135161;1282;22525;-63
2023/10/05 01:33:16;;;;;;;28.20;9.10;;;;;;;15.25;59.55;99649.48;135173;1259;22542;-63
2023/10/05 01:36:22;;;;;;;29.40;9.50;;;;;;;15.19;59.70;99645.30;135179;1282;22555;-66
2023/10/05 01:39:25;;;;;;;25.40;7.80;;;;;;;15.13;60.09;99645.36;135189;1282;24267;-68
2023/10/05 01:42:29;;;;;;;26.60;7.60;;;;;;;15.16;59.70;99645.16;135199;1282;22557;-65
2023/10/05 01:45:33;;;;;;;26.60;7.90;;;;;;;15.28;59.23;99643.85;135161;1282;22537;-63
2023/10/05 01:48:36;;;;;;;25.10;7.70;;;;;;;15.29;59.35;99644.15;135143;1282;23880;-64
2023/10/05 01:51:39;;;;;;;26.70;8.00;;;;;;;15.36;59.10;99642.41;135173;1282;22581;-65
2023/10/05 01:54:43;;;;;;;24.90;8.10;;;;;;;15.32;59.17;99634.77;135128;1282;25285;-64
2023/10/05 01:57:45;;;;;;;26.50;8.70;;;;;;;15.18;59.91;99635.67;135186;1282;22547;-65
2023/10/05 02:00:48;;;;;;;28.20;7.70;;;;;;;15.22;60.02;99630.71;135172;1283;22547;-64
2023/10/05 02:03:54;;;;;;;23.40;7.20;;;;;;;15.29;59.63;99628.43;135157;1265;22542;-65
2023/10/05 02:06:56;;;;;;;25.20;7.30;;;;;;;15.33;59.58;99623.08;135178;1282;22542;-64
2023/10/05 02:09:59;;;;;;;24.70;7.90;;;;;;;15.29;59.79;99617.86;135192;1282;22704;-66
2023/10/05 02:13:02;;;;;;;;;;;;;;;15.53;59.25;99618.73;135176;1282;22517;-64
2023/10/05 02:16:07;;;;;;;26.70;8.20;;;;;;;15.57;59.07;99616.65;135122;1283;22533;-64
2023/10/05 02:19:09;;;;;;;28.20;9.30;;;;;;;15.38;59.57;99614.25;135169;1282;22530;-64
2023/10/05 02:22:12;;;;;;;32.40;11.00;;;;;;;15.43;59.35;99615.71;135140;1259;25414;-61
2023/10/05 02:25:18;;;;;;;28.30;9.00;;;;;;;15.51;59.37;99620.27;135113;1282;22556;-64
2023/10/05 02:28:25;;;;;;;29.70;11.90;;;;;;;15.47;59.35;99620.33;135166;1282;25289;-64
2023/10/05 02:31:29;;;;;;;30.60;12.70;;;;;;;15.55;59.50;99619.45;135100;1282;22533;-64
2023/10/05 02:34:42;;;;;;;31.90;14.70;;;;;;;15.55;59.56;99625.62;135139;1282;22638;-64
2023/10/05 02:37:47;;;;;;;30.70;15.30;;;;;;;15.61;59.32;99627.88;135165;1273;24213;-64
2023/10/05 02:41:05;;;;;;;29.80;13.00;;;;;;;15.68;59.22;99629.52;135188;1282;22552;-64
2023/10/05 02:44:16;;;;;;;26.90;10.40;;;;;;;15.63;59.55;99630.70;135147;1282;22539;-65
2023/10/05 02:47:23;;;;;;;26.70;8.20;;;;;;;15.57;59.92;99629.88;135194;1282;22520;-68
2023/10/05 02:50:27;;;;;;;24.60;8.00;;;;;;;15.56;59.90;99627.15;135166;1282;25416;-64
2023/10/05 02:53:30;;;;;;;26.40;8.70;;;;;;;15.62;59.44;99627.10;135143;1282;25519;-65
2023/10/05 02:56:33;;;;;;;;;;;;;;;15.58;59.66;99622.61;135153;1279;22516;-66
2023/10/05 02:59:36;;;;;;;27.40;8.90;;;;;;;15.42;60.05;99615.75;135166;1282;22536;-63
2023/10/05 03:02:45;;;;;;;;;;;;;;;15.40;60.15;99611.81;135172;1268;22522;-64
2023/10/05 03:05:48;;;;;;;28.00;8.80;;;;;;;15.43;59.85;99610.27;135140;1282;22529;-65
2023/10/05 03:08:54;;;;;;;28.30;8.80;;;;;;;15.39;60.09;99608.73;135195;1282;22530;-64
2023/10/05 03:11:56;;;;;;;28.60;8.50;;;;;;;15.37;60.07;99608.70;135127;1282;22553;-65
2023/10/05 03:15:04;;;;;;;;;;;;;;;15.30;60.24;99607.25;135190;1282;22512;-67
2023/10/05 03:18:08;;;;;;;26.50;9.30;;;;;;;15.34;59.83;99602.77;135149;1282;22529;-64
2023/10/05 03:21:12;;;;;;;;;;;;;;;15.37;59.31;99610.64;135198;1265;22543;-67
2023/10/05 03:24:14;;;;;;;31.10;9.90;;;;;;;15.26;59.58;99609.45;135150;1282;24378;-64
2023/10/05 03:27:18;;;;;;;27.80;9.50;;;;;;;15.13;59.83;99614.53;135171;1282;22634;-65
2023/10/05 03:30:27;;;;;;;30.50;10.10;;;;;;;14.98;60.09;99620.83;135161;1282;22523;-68
2023/10/05 03:33:33;;;;;;;32.10;10.20;;;;;;;15.06;59.74;99619.08;135141;1282;25335;-65
2023/10/05 03:36:36;;;;;;;31.60;9.40;;;;;;;14.90;60.23;99621.85;135217;1272;22542;-63
2023/10/05 03:39:40;;;;;;;31.20;10.30;;;;;;;14.81;60.60;99618.43;135190;1282;22642;-64
2023/10/05 03:42:46;;;;;;;30.10;10.60;;;;;;;15.00;60.01;99622.11;135145;1282;22546;-67
2023/10/05 03:45:48;;;;;;;30.70;10.10;;;;;;;15.09;59.83;99619.38;135171;1282;22532;-65
2023/10/05 03:48:51;;;;;;;;;;;;;;;15.12;59.66;99616.38;135206;1282;22521;-66
2023/10/05 03:51:55;;;;;;;31.90;11.50;;;;;;;15.02;60.08;99615.65;135186;1282;22688;-63
2023/10/05 03:55:01;;;;;;;28.00;11.00;;;;;;;15.03;60.07;99609.95;135177;1282;22576;-64
2023/10/05 03:58:03;;;;;;;31.80;11.00;;;;;;;15.08;59.94;99609.77;135170;1273;22798;-63
2023/10/05 04:01:10;;;;;;;29.30;11.80;;;;;;;15.10;59.88;99608.06;135158;1263;22533;-63
2023/10/05 04:04:13;;;;;;;35.50;13.10;;;;;;;15.06;60.00;99604.09;135144;1282;22520;-61
2023/10/05 04:07:16;;;;;;;30.60;14.00;;;;;;;15.04;60.08;99598.78;135148;1282;25227;-63
2023/10/05 04:10:23;;;;;;;39.10;19.00;;;;;;;14.98;60.31;99597.77;135089;1282;22532;-63
2023/10/05 04:13:26;;;;;;;38.20;19.40;;;;;;;14.92;60.67;99601.48;135086;1282;22557;-65
2023/10/05 04:16:33;;;;;;;35.90;17.00;;;;;;;14.81;60.88;99607.29;135180;1282;22538;-64
2023/10/05 04:19:36;;;;;;;35.20;12.70;;;;;;;14.78;61.04;99605.95;135179;1282;22541;-63
2023/10/05 04:22:39;;;;;;;35.40;12.40;;;;;;;14.82;60.86;99600.89;135156;1282;25272;-65
2023/10/05 04:25:41;;;;;;;29.90;12.00;;;;;;;14.94;60.72;99599.41;135162;1282;22533;-63
2023/10/05 04:28:52;;;;;;;37.60;14.70;;;;;;;14.94;61.01;99601.71;135189;1282;22542;-63
2023/10/05 04:31:54;;;;;;;34.90;12.50;;;;;;;14.97;60.85;99590.08;135175;1282;22556;-64
2023/10/05 04:34:57;;;;;;;;;;;;;;;15.09;60.59;99588.77;135175;1282;25214;-66
2023/10/05 04:38:00;;;;;;;;;;;;;;;15.13;60.62;99586.91;135151;1282;22469;-64
2023/10/05 04:41:03;;;;;;;33.90;12.20;;;;;;;15.14;60.75;99579.58;135148;1282;22540;-65
2023/10/05 04:44:06;;;;;;;33.40;11.90;;;;;;;15.28;60.32;99573.55;135151;1282;22547;-63
2023/10/05 04:47:10;;;;;;;33.00;12.50;;;;;;;15.14;60.75;99570.45;135182;1281;24504;-63
2023/10/05 04:50:13;;;;;;;29.70;10.80;;;;;;;15.17;61.23;99564.09;135162;1282;22548;-65
2023/10/05 04:53:17;;;;;;;37.20;12.50;;;;;;;15.21;61.41;99563.25;135155;1282;22542;-63
2023/10/05 04:56:28;;;;;;;36.60;13.40;;;;;;;15.23;61.37;99557.48;135174;1282;22541;-63
2023/10/05 04:59:58;;;;;;;37.80;13.50;;;;;;;15.20;61.68;99553.98;135164;1272;23078;-65
2023/10/05 05:03:17;;;;;;;32.60;12.70;;;;;;;15.45;60.86;99549.13;135137;1282;22673;-65
2023/10/05 05:06:20;;;;;;;31.30;12.20;;;;;;;15.36;61.34;99548.52;135135;1282;24381;-64
2023/10/05 05:09:24;;;;;;;34.60;12.20;;;;;;;15.44;61.25;99541.28;135152;1283;22536;-65
2023/10/05 05:12:29;;;;;;;36.60;11.10;;;;;;;15.46;61.49;99536.88;135096;1273;22589;-65
2023/10/05 05:15:38;;;;;;;29.80;10.80;;;;;;;15.57;61.27;99527.11;135116;1282;22542;-67
2023/10/05 05:18:41;;;;;;;31.10;10.80;;;;;;;15.70;61.24;99516.36;135137;1282;22537;-65
2023/10/05 05:21:43;;;;;;;29.10;11.80;;;;;;;15.67;61.22;99514.44;135157;1282;22571;-65
2023/10/05 05:24:46;;;;;;;;;;;;;;;15.66;61.21;99514.89;135146;1283;22532;-65
2023/10/05 05:27:49;;;;;;;;;;;;;;;15.68;61.01;99515.27;135178;1282;22640;-64
2023/10/05 05:30:53;;;;;;;32.00;11.40;;;;;;;15.77;61.03;99519.77;135133;1282;22560;-67
2023/10/05 05:33:56;;;;;;;30.80;10.70;;;;;;;15.89;60.60;99512.57;135116;1282;22548;-67
2023/10/05 05:36:58;;;;;;;31.10;12.20;;;;;;;15.98;60.15;99513.13;135159;1282;22527;-65
2023/10/05 05:40:12;;;;;;;36.50;14.70;;;;;;;15.92;60.65;99511.61;135158;1282;22567;-67
2023/10/05 05:43:15;;;;;;;29.50;12.10;;;;;;;16.04;60.47;99509.75;135126;1282;22545;-62
2023/10/05 05:46:17;;;;;;;;;;;;;;;16.19;60.23;99501.02;135187;1282;22510;-69
2023/10/05 05:49:21;;;;;;;28.10;10.00;;;;;;;16.31;59.53;99496.10;135161;1282;25348;-65
2023/10/05 05:52:23;;;;;;;26.80;9.10;;;;;;;16.48;59.20;99495.57;135178;1282;22523;-66
2023/10/05 05:55:26;;;;;;;28.20;10.50;;;;;;;16.50;59.07;99492.59;135106;1282;25334;-64
2023/10/05 05:58:29;;;;;;;31.50;10.60;;;;;;;16.53;59.06;99492.71;135164;1282;25417;-64
2023/10/05 06:01:35;;;;;;;;;;;;;;;16.67;58.75;99494.27;135163;1263;24221;-66
2023/10/05 06:04:39;;;;;;;33.00;12.40;;;;;;;16.63;59.01;99497.08;135176;1282;22554;-64
2023/10/05 06:07:42;;;;;;;30.70;12.50;;;;;;;16.73;59.27;99508.81;135152;1282;22528;-63
2023/10/05 06:10:46;;;;;;;32.70;12.40;;;;;;;16.85;58.53;99507.05;135150;1273;22544;-63
2023/10/05 06:13:49;;;;;;;37.20;11.80;;;;;;;16.85;58.78;99511.66;135138;1282;22549;-62
2023/10/05 06:16:53;;;;;;;31.70;10.70;;;;;;;16.95;58.66;99518.70;135150;1282;22533;-64
2023/10/05 06:19:56;;;;;;;27.10;10.20;;;;;;;17.05;58.46;99521.48;135141;1282;22653;-64
2023/10/05 06:23:00;;;;;;;25.90;8.40;;;;;;;17.27;57.99;99519.96;135156;1282;22536;-67
2023/10/05 06:26:02;;;;;;;25.50;9.10;;;;;;;17.17;58.22;99519.85;135120;1282;22529;-66
2023/10/05 06:29:08;;;;;;;29.70;9.90;;;;;;;17.18;58.48;99520.16;135117;1282;22635;-65
2023/10/05 06:32:11;;;;;;;26.50;9.30;;;;;;;17.37;57.87;99514.91;135091;1282;22604;-65
2023/10/05 06:35:13;;;;;;;;;;;;;;;17.46;57.93;99512.79;135114;1282;24221;-67
2023/10/05 06:38:16;;;;;;;26.80;8.90;;;;;;;17.65;57.34;99510.42;135132;1282;22545;-67
2023/10/05 06:41:19;;;;;;;29.90;8.70;;;;;;;17.75;56.80;99514.06;135130;1282;22648;-65
2023/10/05 06:44:23;;;;;;;;;;;;;;;17.84;56.41;99514.08;135133;1282;22706;-63
2023/10/05 06:47:36;;;;;;;26.10;8.00;;;;;;;17.95;56.41;99514.81;135115;1270;22540;-65
2023/10/05 06:50:47;;;;;;;25.00;8.10;;;;;;;17.92;55.85;99514.70;131142;1282;5326279;-63
2023/10/05 06:53:50;;;;;;;;;;;;;;;17.91;56.00;99520.04;135135;1264;24204;-62
2023/10/05 06:56:55;;;;;;;25.00;7.80;;;;;;;17.86;55.28;99529.45;135117;1282;22536;-62
2023/10/05 06:59:58;;;;;;;26.40;7.90;;;;;;;17.99;55.40;99524.27;135081;1282;22540;-63
2023/10/05 07:03:06;;;;;;;;;;;;;;;17.97;55.51;99523.10;135109;1282;25397;-65
2023/10/05 07:06:11;;;;;;;25.20;8.90;;;;;;;18.05;54.55;99525.84;135124;1282;22546;-63
2023/10/05 07:09:13;;;;;;;23.30;7.50;;;;;;;18.06;55.09;99526.02;135122;1282;22551;-65
2023/10/05 07:12:16;;;;;;;;;;;;;;;18.01;55.30;99521.75;135133;1282;22504;-65
2023/10/05 07:15:19;;;;;;;25.20;7.20;;;;;;;17.95;55.44;99520.31;135118;1282;22529;-67
2023/10/05 07:18:24;;;;;;;25.10;7.70;;;;;;;18.05;55.41;99517.35;135101;1282;22554;-64
2023/10/05 07:21:26;;;;;;;25.70;7.60;;;;;;;18.09;55.51;99518.09;135178;1282;22558;-68
2023/10/05 07:24:29;;;;;;;;;;;;;;;18.02;55.75;99513.40;135129;1282;22654;-62
2023/10/05 07:27:32;;;;;;;25.30;7.10;;;;;;;18.19;55.68;99517.67;135115;1282;22543;-69
2023/10/05 07:30:34;;;;;;;;;;;;;;;18.48;55.20;99517.39;135150;1282;22520;-64
2023/10/05 07:33:36;;;;;;;23.50;6.60;;;;;;;18.71;54.67;99514.83;135139;1282;22534;-65
2023/10/05 07:36:39;;;;;;;;;;;;;;;18.95;53.87;99515.06;135092;1282;25455;-64
2023/10/05 07:39:42;;;;;;;25.10;6.80;;;;;;;19.32;53.14;99521.00;135131;1282;22528;-65
2023/10/05 07:42:44;;;;;;;20.80;6.70;;;;;;;19.66;52.90;99519.14;135144;1282;22543;-66
2023/10/05 07:45:46;;;;;;;;;;;;;;;20.00;51.29;99525.95;135147;1282;22509;-66
2023/10/05 07:48:49;;;;;;;21.40;5.90;;;;;;;19.98;50.80;99519.70;135151;1282;22484;-68
2023/10/05 07:51:51;;;;;;;;;;;;;;;20.05;50.34;99516.77;135148;1282;24276;-65
2023/10/05 07:54:54;;;;;;;20.70;5.80;;;;;;;20.01;50.64;99521.36;135171;1271;22533;-66
2023/10/05 07:57:57;;;;;;;21.80;6.20;;;;;;;19.86;49.93;99523.92;135160;1282;22637;-65
2023/10/05 08:00:59;;;;;;;;;;;;;;;19.90;50.25;99520.61;135139;1282;22500;-66
2023/10/05 08:04:02;;;;;;;22.40;5.70;;;;;;;19.91;48.48;99516.96;135141;1282;22546;-65
2023/10/05 08:07:04;;;;;;;19.50;5.40;;;;;;;19.92;49.08;99506.77;135106;1282;22531;-68
2023/10/05 08:10:13;;;;;;;;;;;;;;;20.18;48.61;99508.02;135140;1270;22522;-65
2023/10/05 08:13:16;;;;;;;20.60;5.50;;;;;;;20.02;48.45;99508.89;135124;1282;22552;-64
2023/10/05 08:16:18;;;;;;;23.10;5.70;;;;;;;19.85;48.20;99506.44;135138;1282;24230;-62
2023/10/05 08:19:24;;;;;;;17.50;4.50;;;;;;;19.84;48.53;99499.98;135124;1282;24244;-65
2023/10/05 08:22:28;;;;;;;19.90;5.10;;;;;;;19.85;48.60;99499.08;135152;1282;22558;-63
2023/10/05 08:25:31;;;;;;;21.00;5.10;;;;;;;19.98;48.46;99488.67;135118;1264;22532;-64
2023/10/05 08:28:33;;;;;;;;;;;;;;;20.45;49.65;99481.20;135136;1282;22508;-65
2023/10/05 08:31:36;;;;;;;22.50;4.90;;;;;;;20.65;48.37;99482.87;135097;1282;22538;-64
2023/10/05 08:34:40;;;;;;;19.50;4.80;;;;;;;20.94;46.64;99481.34;135120;1282;25260;-64
2023/10/05 08:37:49;;;;;;;19.80;5.30;;;;;;;21.05;47.11;99471.56;135106;1282;22535;-64
2023/10/05 08:40:52;;;;;;;18.10;5.40;;;;;;;21.31;46.61;99473.38;135108;1282;22523;-67
2023/10/05 08:43:55;;;;;;;18.50;4.40;;;;;;;21.39;46.09;99476.14;135125;1259;22533;-66
2023/10/05 08:46:58;;;;;;;17.90;4.70;;;;;;;21.34;45.88;99473.80;135083;1282;25350;-62
2023/10/05 08:50:05;;;;;;;16.90;4.60;;;;;;;21.19;44.46;99480.95;135133;1282;22526;-65
2023/10/05 08:53:12;;;;;;;18.10;4.00;;;;;;;20.95;45.07;99480.84;135128;1282;22536;-63
2023/10/05 08:56:16;;;;;;;19.50;4.20;;;;;;;20.61;45.35;99472.09;135143;1273;22537;-65
2023/10/05 08:59:19;;;;;;;17.30;4.00;;;;;;;20.29;45.63;99473.92;135083;1282;22554;-62
2023/10/05 09:02:22;;;;;;;19.80;4.70;;;;;;;20.00;46.48;99482.93;135145;1275;22535;-65
2023/10/05 09:05:25;;;;;;;18.60;3.80;;;;;;;19.94;46.57;99490.61;135104;1282;22561;-66
2023/10/05 09:08:28;;;;;;;15.40;3.90;;;;;;;19.95;46.22;99492.27;135114;1282;22540;-64
2023/10/05 09:11:31;;;;;;;16.20;3.70;;;;;;;20.17;46.12;99486.23;135107;1282;24269;-64
2023/10/05 09:14:38;;;;;;;17.30;4.10;;;;;;;20.21;46.28;99491.56;135105;1282;23894;-65
2023/10/05 09:17:40;;;;;;;21.20;5.90;;;;;;;20.49;45.92;99493.44;135131;1282;22540;-62
2023/10/05 09:20:46;;;;;;;17.20;3.90;;;;;;;20.67;44.73;99484.13;135126;1282;22533;-64
2023/10/05 09:23:49;;;;;;;15.90;3.90;;;;;;;20.85;44.35;99486.66;135115;1282;22532;-63
2023/10/05 09:26:52;;;;;;;18.20;3.80;;;;;;;21.12;43.69;99482.96;135119;1282;22539;-67
2023/10/05 09:29:54;;;;;;;17.00;4.10;;;;;;;21.12;43.45;99481.52;135080;1282;24212;-67
2023/10/05 09:32:56;;;;;;;16.50;3.90;;;;;;;21.15;43.37;99481.86;135092;1282;22541;-65
2023/10/05 09:36:06;;;;;;;;;;;;;;;20.67;43.57;99486.98;135159;1282;22511;-67
2023/10/05 09:39:08;;;;;;;19.70;5.20;;;;;;;20.45;43.90;99477.42;135118;1282;25423;-63
2023/10/05 09:42:11;;;;;;;18.90;4.10;;;;;;;20.70;44.32;99465.41;135128;1282;22542;-66
2023/10/05 09:45:13;;;;;;;14.80;3.70;;;;;;;20.86;43.84;99461.67;135125;1282;22554;-67
2023/10/05 09:48:17;;;;;;;15.30;3.90;;;;;;;21.20;43.38;99458.06;135115;1282;22583;-67
2023/10/05 09:51:19;;;;;;;18.50;4.10;;;;;;;21.41;42.16;99460.30;135093;1282;22530;-62
2023/10/05 09:54:26;;;;;;;16.00;3.80;;;;;;;21.47;41.83;99461.91;135136;1264;22581;-64
2023/10/05 09:57:29;;;;;;;18.90;4.10;;;;;;;21.63;42.22;99454.55;135129;1263;22540;-63
2023/10/05 10:00:47;;;;;;;17.90;3.80;;;;;;;21.90;41.43;99451.86;135071;1282;22546;-65
2023/10/05 10:03:52;;;;;;;16.60;3.90;;;;;;;22.19;41.19;99448.73;135103;1282;22543;-66
2023/10/05 10:06:55;;;;;;;19.80;4.30;;;;;;;22.36;40.25;99446.13;135121;1282;22532;-64
2023/10/05 10:09:57;;;;;;;20.00;4.70;;;;;;;22.33;40.45;99443.55;135115;1282;22549;-63
2023/10/05 10:13:00;;;;;;;19.00;4.20;;;;;;;22.53;40.36;99439.42;135103;1267;22672;-64
2023/10/05 10:16:03;;;;;;;18.00;3.80;;;;;;;22.83;39.30;99443.38;135108;1282;23874;-63
2023/10/05 10:19:07;;;;;;;15.40;3.90;;;;;;;22.43;38.88;99449.72;135114;1264;22546;-65
2023/10/05 10:22:12;;;;;;;16.50;3.80;;;;;;;22.19;39.11;99444.95;135107;1282;25404;-63
2023/10/05 10:25:15;;;;;;;18.50;4.60;;;;;;;22.02;39.26;99439.13;135122;1282;22564;-67
2023/10/05 10:28:18;;;;;;;16.90;3.90;;;;;;;22.03;39.71;99428.19;135082;1282;25441;-64
2023/10/05 10:31:21;;;;;;;19.00;4.10;;;;;;;22.30;39.56;99426.04;135069;1282;22529;-64
2023/10/05 10:34:24;;;;;;;16.90;3.80;;;;;;;22.33;39.01;99428.26;135096;1264;22548;-64
2023/10/05 10:37:27;;;;;;;20.50;4.60;;;;;;;22.50;39.20;99425.88;135085;1282;22540;-64
2023/10/05 10:40:30;;;;;;;17.20;4.00;;;;;;;22.78;39.06;99424.75;135090;1282;22551;-66
2023/10/05 10:43:32;;;;;;;15.90;3.70;;;;;;;23.07;38.24;99417.36;135084;1282;22552;-65
2023/10/05 10:46:38;;;;;;;17.80;4.00;;;;;;;23.10;37.86;99424.91;135113;1282;22537;-67
2023/10/05 10:49:41;;;;;;;17.40;3.50;;;;;;;22.87;37.60;99432.75;135103;1282;22487;-64
2023/10/05 10:52:44;;;;;;;14.70;3.60;;;;;;;22.26;37.62;99438.05;135138;1282;22573;-66
2023/10/05 10:55:47;;;;;;;16.60;4.00;;;;;;;21.98;38.25;99432.58;135153;1282;22542;-67
2023/10/05 10:58:56;;;;;;;15.50;3.40;;;;;;;21.90;38.66;99423.93;135177;1264;22591;-67
2023/10/05 11:02:11;;;;;;;13.90;3.30;;;;;;;21.87;38.40;99430.02;135103;1282;22552;-62
2023/10/05 11:05:24;;;;;;;18.10;4.10;;;;;;;21.99;39.06;99423.61;135116;1282;22526;-64
2023/10/05 11:08:30;;;;;;;17.20;3.50;;;;;;;22.16;38.46;99424.77;135122;1282;22581;-62
2023/10/05 11:11:34;;;;;;;17.10;3.80;;;;;;;22.31;38.51;99417.55;135127;1282;22546;-63
2023/10/05 11:14:37;;;;;;;17.80;3.80;;;;;;;22.42;37.93;99415.73;135121;1282;25417;-62
2023/10/05 11:17:44;;;;;;;17.60;3.70;;;;;;;22.29;38.11;99411.91;135135;1282;22617;-62
2023/10/05 11:20:52;;;;;;;17.70;4.10;;;;;;;22.20;38.41;99418.48;135141;1282;24371;-63
2023/10/05 11:23:57;;;;;;;16.70;4.10;;;;;;;21.93;38.86;99419.71;135132;1264;24362;-62
2023/10/05 11:27:05;;;;;;;21.60;3.90;;;;;;;21.76;38.48;99413.59;135133;1282;22565;-63
2023/10/05 11:30:08;;;;;;;12.80;3.10;;;;;;;21.62;38.55;99409.98;135116;1282;23303;-63
2023/10/05 11:33:15;;;;;;;18.20;3.40;;;;;;;21.49;38.32;99417.46;135141;1282;22735;-63
2023/10/05 11:36:21;;;;;;;18.50;3.50;;;;;;;21.51;38.30;99411.56;135110;1282;22623;-63
2023/10/05 11:39:27;;;;;;;16.20;3.60;;;;;;;21.42;38.40;99396.37;135132;1282;22550;-65
2023/10/05 11:42:34;;;;;;;15.90;3.30;;;;;;;21.65;38.95;99384.88;135118;1282;22677;-62
2023/10/05 11:45:37;;;;;;;17.30;3.90;;;;;;;21.82;38.62;99393.38;135142;1264;22704;-63
2023/10/05 11:48:47;;;;;;;15.50;3.40;;;;;;;22.06;38.85;99382.11;135099;1282;22623;-63
2023/10/05 11:51:56;;;;;;;29.40;10.40;;;;;;;22.32;38.02;99384.39;135124;1282;22602;-65
2023/10/05 11:54:58;;;;;;;23.70;5.00;;;;;;;22.64;38.30;99383.46;135122;1282;22539;-65
2023/10/05 11:58:01;;;;;;;35.50;12.20;;;;;;;22.64;38.00;99367.04;135135;1282;22529;-64
2023/10/05 12:01:04;;;;;;;17.40;3.40;;;;;;;22.19;37.82;99385.63;135118;1282;22544;-66
2023/10/05 12:04:08;;;;;;;38.60;12.80;;;;;;;22.08;38.06;99385.80;135138;1282;24380;-68
2023/10/05 12:07:14;;;;;;;168.50;72.60;;;;;;;22.19;38.08;99381.65;135152;1258;22564;-64
2023/10/05 12:10:16;;;;;;;61.30;26.20;;;;;;;22.31;38.38;99374.09;135134;1264;22536;-65
2023/10/05 12:13:19;;;;;;;56.60;23.40;;;;;;;22.45;38.96;99367.56;135138;1282;22541;-63
2023/10/05 12:16:21;;;;;;;30.00;9.70;;;;;;;22.59;39.06;99368.23;135116;1282;22532;-66
2023/10/05 12:19:29;;;;;;;107.00;53.10;;;;;;;22.55;37.82;99363.02;135127;1282;24423;-65
2023/10/05 12:22:33;;;;;;;26.60;7.20;;;;;;;22.45;37.64;99357.05;135135;1282;22552;-66
2023/10/05 12:25:36;;;;;;;69.50;28.80;;;;;;;22.47;37.40;99360.23;135126;1282;24091;-65
2023/10/05 12:28:40;;;;;;;62.10;27.50;;;;;;;22.35;38.56;99357.88;135133;1282;22557;-63
2023/10/05 12:31:43;;;;;;;67.00;29.00;;;;;;;22.45;37.70;99360.79;135136;1282;22529;-63
2023/10/05 12:34:48;;;;;;;35.80;12.60;;;;;;;22.51;37.93;99363.54;135148;1282;22551;-63
2023/10/05 12:37:52;;;;;;;30.70;9.70;;;;;;;22.49;37.95;99358.61;135173;1282;22570;-63
2023/10/05 12:40:54;;;;;;;64.10;27.60;;;;;;;22.60;37.07;99356.73;135154;1265;22554;-66
2023/10/05 12:43:57;;;;;;;34.10;13.50;;;;;;;22.51;37.36;99357.15;135157;1282;22555;-64
2023/10/05 12:47:07;;;;;;;18.80;4.90;;;;;;;22.68;37.91;99350.27;135172;1282;22578;-64
2023/10/05 12:50:12;;;;;;;33.00;11.60;;;;;;;22.70;36.79;99354.69;135129;1282;22559;-66
2023/10/05 12:53:15;;;;;;;24.30;7.20;;;;;;;22.54;36.94;99351.13;135138;1275;22566;-65
2023/10/05 12:56:17;;;;;;;22.60;7.50;;;;;;;22.35;37.65;99351.82;135134;1282;22532;-66
2023/10/05 12:59:19;;;;;;;22.60;6.40;;;;;;;22.37;37.55;99346.24;135124;1282;25451;-67
2023/10/05 13:02:22;;;;;;;20.30;4.90;;;;;;;22.13;37.58;99338.73;135146;1282;22582;-64
2023/10/05 13:05:28;;;;;;;26.20;6.50;;;;;;;21.96;38.33;99321.84;135127;1282;22551;-68
2023/10/05 13:08:31;;;;;;;22.00;6.40;;;;;;;21.94;38.42;99326.14;135113;1282;22654;-65
2023/10/05 13:11:33;;;;;;;23.20;6.40;;;;;;;21.88;38.33;99326.42;135089;1282;22640;-66
2023/10/05 13:14:36;;;;;;;25.70;7.10;;;;;;;22.00;38.42;99322.70;135130;1282;22546;-63
2023/10/05 13:17:39;;;;;;;19.20;5.40;;;;;;;22.20;38.36;99327.26;135090;1282;22543;-62
2023/10/05 13:20:42;;;;;;;18.90;5.00;;;;;;;22.01;38.72;99324.09;135107;1282;22529;-63
2023/10/05 13:23:46;;;;;;;19.30;4.40;;;;;;;22.08;38.60;99330.25;135145;1282;22570;-62
2023/10/05 13:26:52;;;;;;;21.10;5.40;;;;;;;22.11;38.58;99336.35;135114;1282;22532;-63
2023/10/05 13:29:55;;;;;;;19.40;5.00;;;;;;;22.16;38.41;99341.39;135141;1282;22536;-65
2023/10/05 13:33:08;;;;;;;24.80;5.70;;;;;;;22.00;38.43;99334.28;135102;1282;22526;-66
2023/10/05 13:36:13;;;;;;;19.00;4.80;;;;;;;22.22;38.91;99333.34;135146;1282;22545;-64
2023/10/05 13:39:20;;;;;;;22.50;5.30;;;;;;;22.10;38.04;99336.60;135095;1282;22629;-64
2023/10/05 13:42:26;;;;;;;21.90;5.20;;;;;;;22.11;38.76;99328.73;135135;1282;22572;-64
2023/10/05 13:45:29;;;;;;;20.90;5.30;;;;;;;22.16;38.55;99325.42;135138;1282;22529;-66
2023/10/05 13:48:34;;;;;;;21.50;5.40;;;;;;;22.18;38.64;99321.97;135145;1282;24257;-66
2023/10/05 13:51:37;;;;;;;21.90;6.30;;;;;;;22.12;38.53;99320.95;135137;1282;22529;-65
2023/10/05 13:54:40;;;;;;;23.50;6.80;;;;;;;21.98;39.25;99315.64;135170;1282;22558;-64
2023/10/05 13:57:42;;;;;;;21.30;5.20;;;;;;;21.80;39.56;99316.71;135128;1282;22864;-62
2023/10/05 14:00:45;;;;;;;19.80;4.80;;;;;;;21.67;38.91;99321.05;135122;1282;22527;-62
2023/10/05 14:03:48;;;;;;;21.40;5.40;;;;;;;21.73;39.16;99314.93;135146;1282;22545;-64
2023/10/05 14:06:50;;;;;;;22.50;5.20;;;;;;;21.81;39.26;99310.88;135118;1265;22546;-66
2023/10/05 14:09:53;;;;;;;;;;;;;;;21.76;39.16;99311.23;135139;1282;22507;-64
2023/10/05 14:12:56;;;;;;;23.50;5.60;;;;;;;21.64;39.18;99304.45;135132;1282;22551;-68